• Join FlightAware (Why Join?)
  • Login
  • US Flag 
03:28PM EST


 

Airport Tracker/Info


-or-


 

Live Flight TrackerFlight Track Log ✈ BER7688 ✈ 01-May-2013 ✈ LEPA / PMI - LEAS / OVD

Flight Track Log - Related Links

Times and Time Zones

All times are in EDT time to prevent confusion due to time zone crossing. See the BER7688 flight status page for this flight to view local times or setup timezone preferences in your user account.

Time Position Orientation Groundspeed Altitude Reporting Facility
EDT Latitude Longitude Course Direction KTS MPH feet Rate Location/Type
09:07AM 40.0805 1.7166 304° West  Level Estimated
09:08AM 40.1460 1.5877 304° West  Level Estimated
09:09AM 40.2113 1.4586 304° West  Level Estimated
09:10AM 40.2765 1.3292 303° West  Level Estimated
09:11AM 40.3415 1.1996 303° West  Level Estimated
09:12AM 40.4064 1.0697 303° West  Level Estimated
09:13AM 40.4712 0.9396 303° West  Level Estimated
09:14AM 40.5358 0.8092 303° West  Level Estimated
09:15AM 40.6002 0.6786 303° West  Level Estimated
09:16AM 40.6646 0.5477 303° West  Level Estimated
09:17AM 40.7287 0.4165 303° West  Level Estimated
09:18AM 40.7927 0.2851 303° West  Level Estimated
09:19AM 40.8566 0.1535 303° West  Level Estimated
09:20AM 40.9203 0.0216 303° West  Level Estimated
09:21AM 40.9838 -0.1106 303° West  Level Estimated
09:22AM 41.0473 -0.2430 302° West  Level Estimated
09:23AM 41.1105 -0.3756 302° West  Level Estimated
09:24AM 41.1736 -0.5086 302° West  Level Estimated
09:25AM 41.2366 -0.6417 302° West  Level Estimated
09:26AM 41.2994 -0.7752 302° West  Level Estimated
09:27AM 41.3620 -0.9089 302° West  Level Estimated
09:28AM 41.4245 -1.0428 302° West  Level Estimated
09:29AM 41.4869 -1.1770 302° West  Level Estimated
09:30AM 41.5490 -1.3115 302° West  Level Estimated
09:31AM 41.6110 -1.4462 302° West  Level Estimated
09:32AM 41.6729 -1.5812 302° West  Level Estimated
09:33AM 41.7346 -1.7164 301° West  Level Estimated
09:34AM 41.7962 -1.8519 301° West  Level Estimated
09:35AM 41.8576 -1.9877 301° West  Level Estimated
09:36AM 41.9188 -2.1237 301° West  Level Estimated
09:37AM 41.9799 -2.2600 301° West  Level Estimated
09:38AM 42.0408 -2.3965 301° West  Level Estimated
09:39AM 42.1015 -2.5333 301° West  Level Estimated
09:40AM 42.1621 -2.6704 301° West  Level Estimated
09:41AM 42.2225 -2.8077 301° West  Level Estimated
09:42AM 42.2827 -2.9453 301° West  Level Estimated
09:43AM 42.3428 -3.0831 301° West  Level Estimated
09:44AM 42.4028 -3.2213 300° West  Level Estimated
09:45AM 42.4625 -3.3596 300° West  Level Estimated
09:46AM 42.5221 -3.4983 300° West  Level Estimated
09:47AM 42.5815 -3.6372 300° West  Level Estimated
09:48AM 42.6408 -3.7764 300° West  Level Estimated
09:49AM 42.6999 -3.9158 300° West  Level Estimated
09:50AM 42.7588 -4.0555 300° West  Level Estimated
09:51AM 42.8175 -4.1955 300° West  Level Estimated
09:52AM 42.8761 -4.3357 300° West  Level Estimated
09:53AM 42.9345 -4.4762 300° West  Level Estimated
09:54AM 42.9927 -4.6170 300° West  Level Estimated
09:55AM 43.0508 -4.7580 299° West  Level Estimated
09:56AM 43.1087 -4.8993 299° West  Level Estimated
09:57AM 43.1664 -5.0409 299° West  Level Estimated
09:58AM 43.2239 -5.1827 299° West  Level Estimated
09:59AM 43.2813 -5.3248 299° West  Level Estimated
10:00AM 43.3385 -5.4672 299° West  Level Estimated
10:01AM 43.3955 -5.6098 299° West  Level Estimated
10:02AM 43.4523 -5.7527 299° West  Level Estimated
10:03AM 43.5089 -5.8959 299° West  Level Estimated
10:04AM 43.5636 -6.0346 299° West  Level Estimated
10:05AM 43.5636 -6.0346 206° Southwest  Level Estimated
10:06AM 43.5636 -6.0346 206° Southwest  Level Estimated
10:07AM 43.5636 -6.0346 206° Southwest  Level Estimated
10:08AM 43.5636 -6.0346 206° Southwest  Level Estimated
10:09AM 43.5636 -6.0346 206° Southwest  Level Estimated
10:10AM 43.5636 -6.0346 206° Southwest  Level Estimated
10:11AM 43.5636 -6.0346 206° Southwest  Level Estimated
10:12AM 43.5636 -6.0346 206° Southwest  Level Estimated
10:13AM 43.5636 -6.0346 206° Southwest  Level Estimated
10:14AM 43.5636 -6.0346 206° Southwest  Level Estimated
10:15AM 43.5636 -6.0346 206° Southwest  Level Estimated
10:16AM 43.5636 -6.0346 206° Southwest  Level Estimated
10:17AM 43.5636 -6.0346 206° Southwest  Level Estimated
10:18AM 43.5636 -6.0346 206° Southwest  Level Estimated
10:19AM 43.5636 -6.0346 206° Southwest  Level Estimated
10:20AM 43.5636 -6.0346 206° Southwest  Level Estimated